Terminal Aerodrome Forecast
Issued by NWS

Home | Current Version | Previous Version | Text Only | Print | Product List | Glossary On
Versions: 1 2 3 4 5 6 7 8 9 10 11 12 13 14 15
757
FTUS43 KMPX 280831 AAA
TAFRWF
TAF AMD
KRWF 280831Z 2809/0106 36004KT P6SM OVC060
     FM281600 35009KT P6SM SCT050 OVC100
     FM282200 35008KT P6SM OVC025
     FM010300 34008KT P6SM OVC015=

USA.gov is the U.S. government's official web portal to all federal, state and local government web resources and services.